You are listening to:
KMIA Approach #2 - Miami, Florida, United States

KMIA 181353Z 07011G18KT 10SM FEW035 27/18 A3004 RMK AO2 SLP173 T02670183 $

If stream doesn't start automatically press the play button
If stream stops then reload player then press play